sensor_id;sensor_type;location;lat;lon;timestamp;temperature;humidity
429;DHT22;201;48.758;9.290;2022-09-21T00:01:55;6.70;14.60
429;DHT22;201;48.758;9.290;2022-09-21T00:04:20;6.70;14.70
429;DHT22;201;48.758;9.290;2022-09-21T00:06:46;6.60;14.80
429;DHT22;201;48.758;9.290;2022-09-21T00:09:11;6.60;14.80
429;DHT22;201;48.758;9.290;2022-09-21T00:11:37;6.60;15.00
429;DHT22;201;48.758;9.290;2022-09-21T00:14:09;6.50;14.90
429;DHT22;201;48.758;9.290;2022-09-21T00:16:37;6.50;15.10
429;DHT22;201;48.758;9.290;2022-09-21T00:19:03;6.50;15.30
429;DHT22;201;48.758;9.290;2022-09-21T00:21:29;6.50;15.40
429;DHT22;201;48.758;9.290;2022-09-21T00:23:55;6.40;15.70
429;DHT22;201;48.758;9.290;2022-09-21T00:26:22;6.40;15.60
429;DHT22;201;48.758;9.290;2022-09-21T00:28:55;6.40;15.80
429;DHT22;201;48.758;9.290;2022-09-21T00:31:21;6.40;15.90
429;DHT22;201;48.758;9.290;2022-09-21T00:33:47;6.40;16.30
429;DHT22;201;48.758;9.290;2022-09-21T00:36:17;6.40;16.30
429;DHT22;201;48.758;9.290;2022-09-21T00:38:44;6.40;16.40
429;DHT22;201;48.758;9.290;2022-09-21T00:41:11;6.50;16.40
429;DHT22;201;48.758;9.290;2022-09-21T00:43:42;6.50;16.40
429;DHT22;201;48.758;9.290;2022-09-21T00:46:26;6.50;16.40
429;DHT22;201;48.758;9.290;2022-09-21T00:48:53;6.40;16.40
429;DHT22;201;48.758;9.290;2022-09-21T00:51:19;6.40;16.30
429;DHT22;201;48.758;9.290;2022-09-21T00:53:45;6.40;16.30
429;DHT22;201;48.758;9.290;2022-09-21T00:56:15;6.30;16.30
429;DHT22;201;48.758;9.290;2022-09-21T00:58:45;6.30;16.30
429;DHT22;201;48.758;9.290;2022-09-21T01:01:12;6.30;16.30
429;DHT22;201;48.758;9.290;2022-09-21T01:03:40;6.30;16.30
429;DHT22;201;48.758;9.290;2022-09-21T01:06:11;6.30;16.30
429;DHT22;201;48.758;9.290;2022-09-21T01:08:37;6.30;16.30
429;DHT22;201;48.758;9.290;2022-09-21T01:11:37;6.30;16.30
429;DHT22;201;48.758;9.290;2022-09-21T01:19:57;6.40;16.70
429;DHT22;201;48.758;9.290;2022-09-21T01:30:24;6.30;16.40
429;DHT22;201;48.758;9.290;2022-09-21T01:33:10;6.20;16.20
429;DHT22;201;48.758;9.290;2022-09-21T01:35:41;6.20;16.20
429;DHT22;201;48.758;9.290;2022-09-21T01:38:14;6.20;16.20
429;DHT22;201;48.758;9.290;2022-09-21T01:40:50;6.00;16.10
429;DHT22;201;48.758;9.290;2022-09-21T01:43:25;6.00;16.60
429;DHT22;201;48.758;9.290;2022-09-21T01:45:53;6.10;17.00
429;DHT22;201;48.758;9.290;2022-09-21T01:48:22;6.00;16.80
429;DHT22;201;48.758;9.290;2022-09-21T01:50:52;6.00;16.80
429;DHT22;201;48.758;9.290;2022-09-21T01:53:20;6.00;16.80
429;DHT22;201;48.758;9.290;2022-09-21T01:55:50;6.00;16.80
429;DHT22;201;48.758;9.290;2022-09-21T01:58:37;5.90;16.80
429;DHT22;201;48.758;9.290;2022-09-21T02:01:04;5.90;16.90
429;DHT22;201;48.758;9.290;2022-09-21T02:03:37;5.90;16.90
429;DHT22;201;48.758;9.290;2022-09-21T02:06:05;5.90;17.10
429;DHT22;201;48.758;9.290;2022-09-21T02:08:31;5.90;17.30
429;DHT22;201;48.758;9.290;2022-09-21T02:10:59;5.80;17.40
429;DHT22;201;48.758;9.290;2022-09-21T02:13:32;5.80;17.50
429;DHT22;201;48.758;9.290;2022-09-21T02:19:02;5.80;18.10
429;DHT22;201;48.758;9.290;2022-09-21T02:27:05;5.80;17.80
429;DHT22;201;48.758;9.290;2022-09-21T02:35:42;5.70;17.40
429;DHT22;201;48.758;9.290;2022-09-21T02:38:16;5.60;17.20
429;DHT22;201;48.758;9.290;2022-09-21T02:43:48;5.60;17.50
429;DHT22;201;48.758;9.290;2022-09-21T02:46:20;5.60;17.80
429;DHT22;201;48.758;9.290;2022-09-21T02:48:51;5.70;18.20
429;DHT22;201;48.758;9.290;2022-09-21T02:51:34;5.70;18.70
429;DHT22;201;48.758;9.290;2022-09-21T02:54:05;5.80;19.30
429;DHT22;201;48.758;9.290;2022-09-21T02:56:32;5.80;19.50
429;DHT22;201;48.758;9.290;2022-09-21T02:59:02;5.80;19.60
429;DHT22;201;48.758;9.290;2022-09-21T03:01:30;5.80;19.60
429;DHT22;201;48.758;9.290;2022-09-21T03:03:56;5.80;19.50
429;DHT22;201;48.758;9.290;2022-09-21T03:06:21;5.70;19.30
429;DHT22;201;48.758;9.290;2022-09-21T03:08:47;5.70;19.30
429;DHT22;201;48.758;9.290;2022-09-21T03:11:17;5.70;19.50
429;DHT22;201;48.758;9.290;2022-09-21T03:13:42;5.70;19.70
429;DHT22;201;48.758;9.290;2022-09-21T03:16:09;5.70;19.80
429;DHT22;201;48.758;9.290;2022-09-21T03:18:34;5.70;20.10
429;DHT22;201;48.758;9.290;2022-09-21T03:21:00;5.80;20.10
429;DHT22;201;48.758;9.290;2022-09-21T03:23:26;5.80;20.10
429;DHT22;201;48.758;9.290;2022-09-21T03:25:52;5.90;20.10
429;DHT22;201;48.758;9.290;2022-09-21T03:28:19;5.90;20.10
429;DHT22;201;48.758;9.290;2022-09-21T03:30:46;5.80;20.00
429;DHT22;201;48.758;9.290;2022-09-21T03:33:12;5.80;20.10
429;DHT22;201;48.758;9.290;2022-09-21T03:35:38;5.80;20.10
429;DHT22;201;48.758;9.290;2022-09-21T03:38:04;5.80;20.10
429;DHT22;201;48.758;9.290;2022-09-21T03:40:30;5.80;20.10
429;DHT22;201;48.758;9.290;2022-09-21T03:42:56;5.80;20.10
429;DHT22;201;48.758;9.290;2022-09-21T03:45:22;5.90;20.10
429;DHT22;201;48.758;9.290;2022-09-21T03:47:47;5.90;20.10
429;DHT22;201;48.758;9.290;2022-09-21T03:50:13;5.90;19.80
429;DHT22;201;48.758;9.290;2022-09-21T03:52:40;5.90;19.40
429;DHT22;201;48.758;9.290;2022-09-21T03:55:07;5.80;19.20
429;DHT22;201;48.758;9.290;2022-09-21T03:57:34;5.70;18.90
429;DHT22;201;48.758;9.290;2022-09-21T04:00:04;5.70;18.70
429;DHT22;201;48.758;9.290;2022-09-21T04:02:31;5.60;18.50
429;DHT22;201;48.758;9.290;2022-09-21T04:04:56;5.60;18.40
429;DHT22;201;48.758;9.290;2022-09-21T04:07:22;5.50;18.20
429;DHT22;201;48.758;9.290;2022-09-21T04:09:47;5.50;18.30
429;DHT22;201;48.758;9.290;2022-09-21T04:12:13;5.40;18.20
429;DHT22;201;48.758;9.290;2022-09-21T04:14:38;5.40;18.50
429;DHT22;201;48.758;9.290;2022-09-21T04:17:04;5.30;18.50
429;DHT22;201;48.758;9.290;2022-09-21T04:19:30;5.30;18.60
429;DHT22;201;48.758;9.290;2022-09-21T04:21:55;5.30;18.80
429;DHT22;201;48.758;9.290;2022-09-21T04:24:22;5.30;18.80
429;DHT22;201;48.758;9.290;2022-09-21T04:26:47;5.30;18.80
429;DHT22;201;48.758;9.290;2022-09-21T04:29:14;5.30;18.80
429;DHT22;201;48.758;9.290;2022-09-21T04:31:40;5.30;18.90
429;DHT22;201;48.758;9.290;2022-09-21T04:34:06;5.30;18.90
429;DHT22;201;48.758;9.290;2022-09-21T04:36:33;5.20;18.90
429;DHT22;201;48.758;9.290;2022-09-21T04:39:02;5.20;19.20
429;DHT22;201;48.758;9.290;2022-09-21T04:41:28;5.30;19.30
429;DHT22;201;48.758;9.290;2022-09-21T04:43:53;5.30;19.60
429;DHT22;201;48.758;9.290;2022-09-21T04:46:20;5.30;19.60
429;DHT22;201;48.758;9.290;2022-09-21T04:48:46;5.30;19.40
429;DHT22;201;48.758;9.290;2022-09-21T04:51:13;5.30;19.30
429;DHT22;201;48.758;9.290;2022-09-21T04:53:40;5.30;19.00
429;DHT22;201;48.758;9.290;2022-09-21T04:56:07;5.30;19.00
429;DHT22;201;48.758;9.290;2022-09-21T04:58:33;5.30;19.00
429;DHT22;201;48.758;9.290;2022-09-21T05:01:00;5.30;19.30
429;DHT22;201;48.758;9.290;2022-09-21T05:03:26;5.30;19.60
429;DHT22;201;48.758;9.290;2022-09-21T05:05:54;5.30;19.60
429;DHT22;201;48.758;9.290;2022-09-21T05:08:20;5.40;19.80
429;DHT22;201;48.758;9.290;2022-09-21T05:11:07;5.40;19.80
429;DHT22;201;48.758;9.290;2022-09-21T05:13:34;5.50;19.90
429;DHT22;201;48.758;9.290;2022-09-21T05:15:59;5.50;19.90
429;DHT22;201;48.758;9.290;2022-09-21T05:18:25;5.40;19.80
429;DHT22;201;48.758;9.290;2022-09-21T05:20:58;5.50;20.40
429;DHT22;201;48.758;9.290;2022-09-21T05:23:24;5.50;19.90
429;DHT22;201;48.758;9.290;2022-09-21T05:25:50;5.50;19.90
429;DHT22;201;48.758;9.290;2022-09-21T05:28:16;5.50;19.70
429;DHT22;201;48.758;9.290;2022-09-21T05:33:21;5.60;19.60
429;DHT22;201;48.758;9.290;2022-09-21T05:36:01;5.70;19.50
429;DHT22;201;48.758;9.290;2022-09-21T05:38:31;5.80;19.50
429;DHT22;201;48.758;9.290;2022-09-21T05:40:57;6.00;19.50
429;DHT22;201;48.758;9.290;2022-09-21T05:43:22;6.20;19.40
429;DHT22;201;48.758;9.290;2022-09-21T05:46:01;6.70;19.10
429;DHT22;201;48.758;9.290;2022-09-21T05:48:39;7.30;18.30
429;DHT22;201;48.758;9.290;2022-09-21T05:54:10;8.50;12.80
429;DHT22;201;48.758;9.290;2022-09-21T05:56:57;8.80;7.50
429;DHT22;201;48.758;9.290;2022-09-21T06:04:31;8.80;4.50
429;DHT22;201;48.758;9.290;2022-09-21T06:06:56;8.70;4.30
429;DHT22;201;48.758;9.290;2022-09-21T06:09:22;8.80;4.40
429;DHT22;201;48.758;9.290;2022-09-21T06:11:50;9.00;3.70
429;DHT22;201;48.758;9.290;2022-09-21T06:14:15;9.10;2.70
429;DHT22;201;48.758;9.290;2022-09-21T06:16:42;9.30;2.40
429;DHT22;201;48.758;9.290;2022-09-21T06:19:13;9.80;1.40
429;DHT22;201;48.758;9.290;2022-09-21T06:21:39;10.30;1.00
429;DHT22;201;48.758;9.290;2022-09-21T06:24:04;10.80;1.00
429;DHT22;201;48.758;9.290;2022-09-21T06:26:30;11.20;1.00
429;DHT22;201;48.758;9.290;2022-09-21T06:28:55;11.90;1.00
429;DHT22;201;48.758;9.290;2022-09-21T06:31:21;13.20;1.00
429;DHT22;201;48.758;9.290;2022-09-21T06:33:46;14.40;1.00
429;DHT22;201;48.758;9.290;2022-09-21T06:36:13;15.50;1.00
429;DHT22;201;48.758;9.290;2022-09-21T06:38:39;16.90;1.00
429;DHT22;201;48.758;9.290;2022-09-21T06:41:04;18.40;1.00
429;DHT22;201;48.758;9.290;2022-09-21T06:43:31;19.40;1.00
429;DHT22;201;48.758;9.290;2022-09-21T06:45:58;20.30;1.00
429;DHT22;201;48.758;9.290;2022-09-21T06:48:25;21.10;1.00
429;DHT22;201;48.758;9.290;2022-09-21T06:51:02;22.30;1.00
429;DHT22;201;48.758;9.290;2022-09-21T06:53:29;23.10;1.00
429;DHT22;201;48.758;9.290;2022-09-21T06:56:06;23.50;1.00
429;DHT22;201;48.758;9.290;2022-09-21T06:58:33;23.60;1.00
429;DHT22;201;48.758;9.290;2022-09-21T07:01:07;24.20;1.00
429;DHT22;201;48.758;9.290;2022-09-21T07:03:32;24.40;1.00
429;DHT22;201;48.758;9.290;2022-09-21T07:05:58;25.20;1.00
429;DHT22;201;48.758;9.290;2022-09-21T07:08:24;25.60;1.00
429;DHT22;201;48.758;9.290;2022-09-21T07:10:49;25.80;1.00
429;DHT22;201;48.758;9.290;2022-09-21T07:13:15;25.90;1.00
429;DHT22;201;48.758;9.290;2022-09-21T07:15:42;26.70;1.00
429;DHT22;201;48.758;9.290;2022-09-21T07:18:12;27.30;1.00
429;DHT22;201;48.758;9.290;2022-09-21T07:20:39;27.90;1.00
429;DHT22;201;48.758;9.290;2022-09-21T07:23:12;28.60;1.00
429;DHT22;201;48.758;9.290;2022-09-21T07:25:42;29.20;1.00
429;DHT22;201;48.758;9.290;2022-09-21T07:28:08;29.80;1.00
429;DHT22;201;48.758;9.290;2022-09-21T07:30:35;30.20;1.00
429;DHT22;201;48.758;9.290;2022-09-21T07:33:01;31.00;1.00
429;DHT22;201;48.758;9.290;2022-09-21T07:35:27;31.30;1.00
429;DHT22;201;48.758;9.290;2022-09-21T07:37:52;31.80;1.00
429;DHT22;201;48.758;9.290;2022-09-21T07:40:18;31.90;1.00
429;DHT22;201;48.758;9.290;2022-09-21T07:42:43;32.70;1.00
429;DHT22;201;48.758;9.290;2022-09-21T07:45:09;32.60;1.00
429;DHT22;201;48.758;9.290;2022-09-21T07:47:35;32.80;1.00
429;DHT22;201;48.758;9.290;2022-09-21T07:50:01;32.60;1.00
429;DHT22;201;48.758;9.290;2022-09-21T07:52:26;32.90;1.00
429;DHT22;201;48.758;9.290;2022-09-21T07:54:52;33.20;1.00
429;DHT22;201;48.758;9.290;2022-09-21T07:57:17;33.80;1.00
429;DHT22;201;48.758;9.290;2022-09-21T08:00:02;33.90;1.00
429;DHT22;201;48.758;9.290;2022-09-21T08:02:28;33.70;1.00
429;DHT22;201;48.758;9.290;2022-09-21T08:04:53;33.90;1.00
429;DHT22;201;48.758;9.290;2022-09-21T08:07:19;33.70;1.00
429;DHT22;201;48.758;9.290;2022-09-21T08:09:45;33.50;1.00
429;DHT22;201;48.758;9.290;2022-09-21T08:12:14;33.80;1.00
429;DHT22;201;48.758;9.290;2022-09-21T08:14:43;34.10;1.00
429;DHT22;201;48.758;9.290;2022-09-21T08:17:08;34.70;1.00
429;DHT22;201;48.758;9.290;2022-09-21T08:19:34;35.00;1.00
429;DHT22;201;48.758;9.290;2022-09-21T08:22:00;36.00;1.00
429;DHT22;201;48.758;9.290;2022-09-21T08:24:26;36.30;1.00
429;DHT22;201;48.758;9.290;2022-09-21T08:26:52;37.10;1.00
429;DHT22;201;48.758;9.290;2022-09-21T08:29:18;37.60;1.00
429;DHT22;201;48.758;9.290;2022-09-21T08:31:43;38.10;1.00
429;DHT22;201;48.758;9.290;2022-09-21T08:34:11;38.00;1.00
429;DHT22;201;48.758;9.290;2022-09-21T08:36:36;37.70;1.00
429;DHT22;201;48.758;9.290;2022-09-21T08:39:05;38.10;1.00
429;DHT22;201;48.758;9.290;2022-09-21T08:44:20;38.40;1.00
429;DHT22;201;48.758;9.290;2022-09-21T08:49:46;39.00;1.00
429;DHT22;201;48.758;9.290;2022-09-21T08:52:16;40.40;1.00
429;DHT22;201;48.758;9.290;2022-09-21T08:55:02;40.20;1.00
429;DHT22;201;48.758;9.290;2022-09-21T08:57:32;40.90;1.00
429;DHT22;201;48.758;9.290;2022-09-21T08:59:59;42.00;1.00
429;DHT22;201;48.758;9.290;2022-09-21T09:03:37;42.50;1.00
429;DHT22;201;48.758;9.290;2022-09-21T09:19:54;37.00;1.00
429;DHT22;201;48.758;9.290;2022-09-21T09:22:28;37.80;1.00
429;DHT22;201;48.758;9.290;2022-09-21T09:25:01;39.10;1.00
429;DHT22;201;48.758;9.290;2022-09-21T09:27:39;40.10;1.00
429;DHT22;201;48.758;9.290;2022-09-21T09:30:16;40.60;1.00
429;DHT22;201;48.758;9.290;2022-09-21T09:32:54;40.10;1.00
429;DHT22;201;48.758;9.290;2022-09-21T09:35:25;38.90;1.00
429;DHT22;201;48.758;9.290;2022-09-21T09:37:55;36.80;1.00
429;DHT22;201;48.758;9.290;2022-09-21T09:43:21;36.60;1.00
429;DHT22;201;48.758;9.290;2022-09-21T09:46:25;38.30;1.00
429;DHT22;201;48.758;9.290;2022-09-21T09:51:39;38.10;1.00
429;DHT22;201;48.758;9.290;2022-09-21T09:54:14;36.10;1.00
429;DHT22;201;48.758;9.290;2022-09-21T09:56:41;32.40;1.00
429;DHT22;201;48.758;9.290;2022-09-21T09:59:15;28.60;1.00
429;DHT22;201;48.758;9.290;2022-09-21T10:01:44;28.10;1.00
429;DHT22;201;48.758;9.290;2022-09-21T10:04:13;27.20;1.00
429;DHT22;201;48.758;9.290;2022-09-21T10:06:40;26.40;1.00
429;DHT22;201;48.758;9.290;2022-09-21T10:09:33;27.30;1.00
429;DHT22;201;48.758;9.290;2022-09-21T10:14:53;32.50;1.00
429;DHT22;201;48.758;9.290;2022-09-21T10:17:22;30.80;1.00
429;DHT22;201;48.758;9.290;2022-09-21T10:19:48;28.30;1.00
429;DHT22;201;48.758;9.290;2022-09-21T10:22:20;27.60;1.00
429;DHT22;201;48.758;9.290;2022-09-21T10:24:51;27.10;1.00
429;DHT22;201;48.758;9.290;2022-09-21T10:27:27;25.20;1.00
429;DHT22;201;48.758;9.290;2022-09-21T10:29:54;23.50;1.00
429;DHT22;201;48.758;9.290;2022-09-21T10:32:25;21.80;1.00
429;DHT22;201;48.758;9.290;2022-09-21T10:37:32;20.60;1.00
429;DHT22;201;48.758;9.290;2022-09-21T10:39:59;21.10;1.00
429;DHT22;201;48.758;9.290;2022-09-21T10:42:29;21.30;1.00
429;DHT22;201;48.758;9.290;2022-09-21T10:45:15;20.70;1.00
429;DHT22;201;48.758;9.290;2022-09-21T10:47:53;19.00;1.00
429;DHT22;201;48.758;9.290;2022-09-21T10:50:25;18.20;1.00
429;DHT22;201;48.758;9.290;2022-09-21T10:55:37;18.20;1.00
429;DHT22;201;48.758;9.290;2022-09-21T10:58:10;17.80;1.00
429;DHT22;201;48.758;9.290;2022-09-21T11:00:45;18.10;1.00
429;DHT22;201;48.758;9.290;2022-09-21T11:03:35;18.50;1.00
429;DHT22;201;48.758;9.290;2022-09-21T11:06:10;18.60;1.00
429;DHT22;201;48.758;9.290;2022-09-21T11:08:48;18.80;1.00
429;DHT22;201;48.758;9.290;2022-09-21T11:14:00;19.00;1.00
429;DHT22;201;48.758;9.290;2022-09-21T11:16:36;19.00;1.00
429;DHT22;201;48.758;9.290;2022-09-21T11:19:19;18.90;1.00
429;DHT22;201;48.758;9.290;2022-09-21T11:21:59;19.00;1.00
429;DHT22;201;48.758;9.290;2022-09-21T11:24:44;19.20;1.00
429;DHT22;201;48.758;9.290;2022-09-21T11:27:19;19.30;1.00
429;DHT22;201;48.758;9.290;2022-09-21T11:32:28;19.20;1.00
429;DHT22;201;48.758;9.290;2022-09-21T11:37:48;18.80;1.00
429;DHT22;201;48.758;9.290;2022-09-21T11:40:41;19.00;1.00
429;DHT22;201;48.758;9.290;2022-09-21T11:58:37;19.30;1.00
429;DHT22;201;48.758;9.290;2022-09-21T12:09:26;19.90;1.00
429;DHT22;201;48.758;9.290;2022-09-21T12:12:17;20.10;1.00
429;DHT22;201;48.758;9.290;2022-09-21T12:17:37;19.60;1.00
429;DHT22;201;48.758;9.290;2022-09-21T12:20:11;19.50;1.00
429;DHT22;201;48.758;9.290;2022-09-21T12:22:43;18.80;1.00
429;DHT22;201;48.758;9.290;2022-09-21T12:25:57;18.30;1.00
429;DHT22;201;48.758;9.290;2022-09-21T12:30:33;18.30;1.00
429;DHT22;201;48.758;9.290;2022-09-21T12:33:04;18.30;1.00
429;DHT22;201;48.758;9.290;2022-09-21T12:41:43;18.20;1.00
429;DHT22;201;48.758;9.290;2022-09-21T12:44:23;18.00;1.00
429;DHT22;201;48.758;9.290;2022-09-21T12:47:04;17.60;1.00
429;DHT22;201;48.758;9.290;2022-09-21T12:49:42;17.40;1.00
429;DHT22;201;48.758;9.290;2022-09-21T12:52:09;17.60;1.00
429;DHT22;201;48.758;9.290;2022-09-21T12:57:49;18.00;1.00
429;DHT22;201;48.758;9.290;2022-09-21T13:00:19;18.10;1.00
429;DHT22;201;48.758;9.290;2022-09-21T13:03:11;18.10;1.00
429;DHT22;201;48.758;9.290;2022-09-21T13:08:51;18.40;1.00
429;DHT22;201;48.758;9.290;2022-09-21T13:11:19;18.30;1.00
429;DHT22;201;48.758;9.290;2022-09-21T13:13:58;18.20;1.00
429;DHT22;201;48.758;9.290;2022-09-21T13:16:28;17.60;1.00
429;DHT22;201;48.758;9.290;2022-09-21T13:18:59;17.40;1.00
429;DHT22;201;48.758;9.290;2022-09-21T13:21:27;17.40;1.00
429;DHT22;201;48.758;9.290;2022-09-21T13:24:01;17.50;1.00
429;DHT22;201;48.758;9.290;2022-09-21T13:26:40;17.70;1.00
429;DHT22;201;48.758;9.290;2022-09-21T13:34:30;17.90;1.00
429;DHT22;201;48.758;9.290;2022-09-21T13:37:13;18.00;1.00
429;DHT22;201;48.758;9.290;2022-09-21T13:47:54;17.10;1.00
429;DHT22;201;48.758;9.290;2022-09-21T13:53:25;16.50;1.00
429;DHT22;201;48.758;9.290;2022-09-21T13:55:52;16.30;1.00
429;DHT22;201;48.758;9.290;2022-09-21T13:58:26;16.00;1.00
429;DHT22;201;48.758;9.290;2022-09-21T14:01:03;15.90;1.00
429;DHT22;201;48.758;9.290;2022-09-21T14:03:40;16.10;1.00
429;DHT22;201;48.758;9.290;2022-09-21T14:06:15;16.40;1.00
429;DHT22;201;48.758;9.290;2022-09-21T14:08:55;16.50;1.00
429;DHT22;201;48.758;9.290;2022-09-21T14:11:35;16.70;1.00
429;DHT22;201;48.758;9.290;2022-09-21T14:30:14;17.00;1.00
429;DHT22;201;48.758;9.290;2022-09-21T14:32:44;16.80;1.00
429;DHT22;201;48.758;9.290;2022-09-21T14:35:17;16.80;1.00
429;DHT22;201;48.758;9.290;2022-09-21T14:37:59;16.70;1.00
429;DHT22;201;48.758;9.290;2022-09-21T14:40:31;16.60;1.00
429;DHT22;201;48.758;9.290;2022-09-21T14:43:06;16.30;1.00
429;DHT22;201;48.758;9.290;2022-09-21T14:48:49;15.70;1.00
429;DHT22;201;48.758;9.290;2022-09-21T14:51:21;15.60;1.00
429;DHT22;201;48.758;9.290;2022-09-21T14:54:17;15.70;1.00
429;DHT22;201;48.758;9.290;2022-09-21T14:57:04;15.80;1.00
429;DHT22;201;48.758;9.290;2022-09-21T15:00:01;15.80;1.00
429;DHT22;201;48.758;9.290;2022-09-21T15:02:31;15.80;1.00
429;DHT22;201;48.758;9.290;2022-09-21T15:10:32;16.10;1.00
429;DHT22;201;48.758;9.290;2022-09-21T15:13:46;16.10;1.00
429;DHT22;201;48.758;9.290;2022-09-21T15:18:44;16.00;1.00
429;DHT22;201;48.758;9.290;2022-09-21T15:21:26;15.90;1.00
429;DHT22;201;48.758;9.290;2022-09-21T15:23:52;15.80;1.00
429;DHT22;201;48.758;9.290;2022-09-21T15:26:29;15.80;1.00
429;DHT22;201;48.758;9.290;2022-09-21T15:29:01;15.70;1.00
429;DHT22;201;48.758;9.290;2022-09-21T15:31:32;15.70;1.00
429;DHT22;201;48.758;9.290;2022-09-21T15:33:58;15.70;1.00
429;DHT22;201;48.758;9.290;2022-09-21T15:36:29;15.60;1.00
429;DHT22;201;48.758;9.290;2022-09-21T15:38:56;15.60;1.00
429;DHT22;201;48.758;9.290;2022-09-21T15:41:44;15.50;1.00
429;DHT22;201;48.758;9.290;2022-09-21T15:44:21;15.50;1.00
429;DHT22;201;48.758;9.290;2022-09-21T15:46:51;15.50;1.00
429;DHT22;201;48.758;9.290;2022-09-21T15:49:19;15.40;1.00
429;DHT22;201;48.758;9.290;2022-09-21T15:52:12;15.40;1.00
429;DHT22;201;48.758;9.290;2022-09-21T15:54:43;15.30;1.00
429;DHT22;201;48.758;9.290;2022-09-21T15:57:29;15.20;1.00
429;DHT22;201;48.758;9.290;2022-09-21T16:00:01;15.20;1.00
429;DHT22;201;48.758;9.290;2022-09-21T16:02:33;15.10;1.00
429;DHT22;201;48.758;9.290;2022-09-21T16:04:59;15.10;1.00
429;DHT22;201;48.758;9.290;2022-09-21T16:07:32;15.00;1.00
429;DHT22;201;48.758;9.290;2022-09-21T16:09:58;15.00;1.00
429;DHT22;201;48.758;9.290;2022-09-21T16:14:59;14.90;1.00
429;DHT22;201;48.758;9.290;2022-09-21T16:17:34;14.90;1.00
429;DHT22;201;48.758;9.290;2022-09-21T16:20:19;14.90;1.00
429;DHT22;201;48.758;9.290;2022-09-21T16:22:52;14.80;1.00
429;DHT22;201;48.758;9.290;2022-09-21T16:25:27;14.80;1.00
429;DHT22;201;48.758;9.290;2022-09-21T16:27:57;14.80;1.00
429;DHT22;201;48.758;9.290;2022-09-21T16:30:56;14.80;1.00
429;DHT22;201;48.758;9.290;2022-09-21T16:33:40;14.70;1.00
429;DHT22;201;48.758;9.290;2022-09-21T16:38:44;14.60;1.00
429;DHT22;201;48.758;9.290;2022-09-21T16:41:12;14.50;1.00
429;DHT22;201;48.758;9.290;2022-09-21T16:43:39;14.50;1.00
429;DHT22;201;48.758;9.290;2022-09-21T16:46:11;14.40;1.00
429;DHT22;201;48.758;9.290;2022-09-21T16:48:36;14.30;1.00
429;DHT22;201;48.758;9.290;2022-09-21T16:51:02;14.20;1.00
429;DHT22;201;48.758;9.290;2022-09-21T16:53:28;14.10;1.00
429;DHT22;201;48.758;9.290;2022-09-21T16:55:54;14.10;1.00
429;DHT22;201;48.758;9.290;2022-09-21T16:58:20;14.00;1.00
429;DHT22;201;48.758;9.290;2022-09-21T17:00:48;13.90;1.00
429;DHT22;201;48.758;9.290;2022-09-21T17:03:14;13.90;1.00
429;DHT22;201;48.758;9.290;2022-09-21T17:05:41;13.80;1.00
429;DHT22;201;48.758;9.290;2022-09-21T17:08:08;13.80;1.00
429;DHT22;201;48.758;9.290;2022-09-21T17:10:37;13.70;1.00
429;DHT22;201;48.758;9.290;2022-09-21T17:13:03;13.60;1.00
429;DHT22;201;48.758;9.290;2022-09-21T17:15:30;13.50;1.00
429;DHT22;201;48.758;9.290;2022-09-21T17:17:56;13.50;1.00
429;DHT22;201;48.758;9.290;2022-09-21T17:20:33;13.40;1.00
429;DHT22;201;48.758;9.290;2022-09-21T17:22:59;13.30;1.00
429;DHT22;201;48.758;9.290;2022-09-21T17:25:26;13.30;1.00
429;DHT22;201;48.758;9.290;2022-09-21T17:27:52;13.20;1.00
429;DHT22;201;48.758;9.290;2022-09-21T17:30:17;13.10;1.00
429;DHT22;201;48.758;9.290;2022-09-21T17:32:44;13.00;1.00
429;DHT22;201;48.758;9.290;2022-09-21T17:37:38;12.80;1.00
429;DHT22;201;48.758;9.290;2022-09-21T17:40:05;12.70;1.00
429;DHT22;201;48.758;9.290;2022-09-21T17:42:33;12.60;1.00
429;DHT22;201;48.758;9.290;2022-09-21T17:47:52;12.30;1.00
429;DHT22;201;48.758;9.290;2022-09-21T17:50:23;12.20;1.00
429;DHT22;201;48.758;9.290;2022-09-21T17:52:51;12.10;1.00
429;DHT22;201;48.758;9.290;2022-09-21T17:55:47;12.00;1.00
429;DHT22;201;48.758;9.290;2022-09-21T17:58:18;11.90;1.00
429;DHT22;201;48.758;9.290;2022-09-21T18:03:26;11.70;1.00
429;DHT22;201;48.758;9.290;2022-09-21T18:05:53;11.60;1.00
429;DHT22;201;48.758;9.290;2022-09-21T18:08:21;11.40;1.00
429;DHT22;201;48.758;9.290;2022-09-21T18:10:56;11.40;1.00
429;DHT22;201;48.758;9.290;2022-09-21T18:16:06;11.30;1.00
429;DHT22;201;48.758;9.290;2022-09-21T18:18:43;11.20;1.00
429;DHT22;201;48.758;9.290;2022-09-21T18:21:22;11.20;1.00
429;DHT22;201;48.758;9.290;2022-09-21T18:26:32;11.20;1.00
429;DHT22;201;48.758;9.290;2022-09-21T18:28:59;11.20;1.00
429;DHT22;201;48.758;9.290;2022-09-21T18:31:43;11.20;1.00
429;DHT22;201;48.758;9.290;2022-09-21T18:36:50;11.10;1.00
429;DHT22;201;48.758;9.290;2022-09-21T18:39:53;11.10;1.00
429;DHT22;201;48.758;9.290;2022-09-21T18:42:45;11.10;1.00
429;DHT22;201;48.758;9.290;2022-09-21T18:45:27;11.10;1.00
429;DHT22;201;48.758;9.290;2022-09-21T18:50:47;11.00;1.00
429;DHT22;201;48.758;9.290;2022-09-21T18:53:39;11.00;1.00
429;DHT22;201;48.758;9.290;2022-09-21T18:56:09;11.00;1.00
429;DHT22;201;48.758;9.290;2022-09-21T18:58:36;11.00;1.00
429;DHT22;201;48.758;9.290;2022-09-21T19:01:03;10.90;1.00
429;DHT22;201;48.758;9.290;2022-09-21T19:03:29;10.80;1.00
429;DHT22;201;48.758;9.290;2022-09-21T19:06:23;10.80;1.00
429;DHT22;201;48.758;9.290;2022-09-21T19:11:25;10.60;1.00
429;DHT22;201;48.758;9.290;2022-09-21T19:14:09;10.50;1.00
429;DHT22;201;48.758;9.290;2022-09-21T19:16:56;10.50;1.00
429;DHT22;201;48.758;9.290;2022-09-21T19:25:32;10.40;1.00
429;DHT22;201;48.758;9.290;2022-09-21T19:30:46;10.40;1.00
429;DHT22;201;48.758;9.290;2022-09-21T19:33:28;10.40;1.00
429;DHT22;201;48.758;9.290;2022-09-21T19:35:54;10.30;1.00
429;DHT22;201;48.758;9.290;2022-09-21T19:38:21;10.20;1.00
429;DHT22;201;48.758;9.290;2022-09-21T19:40:51;10.10;1.00
429;DHT22;201;48.758;9.290;2022-09-21T19:43:39;10.00;1.00
429;DHT22;201;48.758;9.290;2022-09-21T19:46:39;9.90;1.00
429;DHT22;201;48.758;9.290;2022-09-21T19:49:13;9.90;1.00
429;DHT22;201;48.758;9.290;2022-09-21T19:51:52;9.80;1.00
429;DHT22;201;48.758;9.290;2022-09-21T19:54:22;9.80;1.00
429;DHT22;201;48.758;9.290;2022-09-21T19:57:13;9.90;1.00
429;DHT22;201;48.758;9.290;2022-09-21T19:59:58;10.00;1.00
429;DHT22;201;48.758;9.290;2022-09-21T20:02:25;10.00;1.00
429;DHT22;201;48.758;9.290;2022-09-21T20:04:58;10.10;1.00
429;DHT22;201;48.758;9.290;2022-09-21T20:07:42;10.10;1.00
429;DHT22;201;48.758;9.290;2022-09-21T20:10:17;10.10;1.00
429;DHT22;201;48.758;9.290;2022-09-21T20:13:31;10.10;1.00
429;DHT22;201;48.758;9.290;2022-09-21T20:21:54;9.80;1.00
429;DHT22;201;48.758;9.290;2022-09-21T20:26:49;9.80;1.00
429;DHT22;201;48.758;9.290;2022-09-21T20:29:16;9.80;1.00
429;DHT22;201;48.758;9.290;2022-09-21T20:31:42;9.80;1.00
429;DHT22;201;48.758;9.290;2022-09-21T20:34:07;9.80;1.00
429;DHT22;201;48.758;9.290;2022-09-21T20:36:33;9.70;1.00
429;DHT22;201;48.758;9.290;2022-09-21T20:38:58;9.70;1.00
429;DHT22;201;48.758;9.290;2022-09-21T20:41:25;9.70;1.00
429;DHT22;201;48.758;9.290;2022-09-21T20:43:50;9.70;1.00
429;DHT22;201;48.758;9.290;2022-09-21T20:46:16;9.70;1.00
429;DHT22;201;48.758;9.290;2022-09-21T20:48:41;9.60;1.00
429;DHT22;201;48.758;9.290;2022-09-21T20:51:09;9.50;1.00
429;DHT22;201;48.758;9.290;2022-09-21T20:53:35;9.40;1.00
429;DHT22;201;48.758;9.290;2022-09-21T20:56:00;9.30;1.00